Hagar Shores, MI (49039)

12:29 PM EST on February 23, 2017 (GMT -0500)
East Paw Paw Lake | | Change Station

Elev 663 ft 42.21 °N, 86.25 °W | Updated 21 seconds ago

Overcast
Overcast
43.2 °F
Feels Like 43 °F
N
1.0
Wind Variable Wind from SW
Gusts 3.0 mph

Today
High -- | Low -- °F
--% Chance of Precip.
Yesterday
High -- | Low -- °F
Precip. -- in
Pressure 29.82 in
Visibility 6.0 miles
Clouds Overcast 400 ft
Windchill 43 °F
Dew Point 41 °F
Humidity 91%
Rainfall 0.00 in
Snow Depth Not available.
7:29 AM 6:28 PM
Waning Crescent, 9% visible
SPECI KBEH 231720Z AUTO VRB04KT 6SM BR OVC004 06/03 A2982 RMK AO2 CIG 003V007 T00560033
Pressure 29.82 in
Visibility 6.0 miles
Clouds Overcast 400 ft
Windchill 43 °F
Dew Point 41 °F
Humidity 91%
Rainfall 0.00 in
Snow Depth Not available.
7:29 AM 6:28 PM
Waning Crescent, 9% visible
SPECI KBEH 231720Z AUTO VRB04KT 6SM BR OVC004 06/03 A2982 RMK AO2 CIG 003V007 T00560033

Get Your Daily Forecast Email!

Thanks for signing up!

Be on the lookout for a verification email in your inbox.

You'll start receiving the daily forecast at 8 AM.

×

10-Day Weather Forecast

Almanac

Astronomy

Feb. 23, 2017 Rise Set
Actual Time
Civil Twilight
Nautical Twilight
Astronomical Twilight
Moon
Length of Visible Light
Length of Day
Tomorrow will be .
, % of the Moon is Illuminated

Today's Extremes

State Highs State Lows

Community

WunderPhotos

Upload Photos

1,962,540 photos uploaded!

WunderBlog® & News

Nearby

Air Quality

  Air Quality AQ Index Pollutant
Not available.

Snow Depth

Station Depth Elevation

Earthquake Activity

City Distance Mag. Time & Date
Minimum magnitude displayed is 2.5.

Coastal Water Temperatures

Place Temperature

Stations

Nearby Weather Stations

Station Location Temp. Windchill Dew Point Humidity Wind Precip. Elev Updated Type
                   

Watches & Warnings

There are currently no watches in effect.